sensor_id;sensor_type;location;lat;lon;timestamp;P1;durP1;ratioP1;P2;durP2;ratioP2
71814;SDS011;59659;41.520;23.794;2023-12-04T00:00:52;21.15;;;8.43;;
71814;SDS011;59659;41.520;23.794;2023-12-04T00:02:03;14.98;;;7.13;;
71814;SDS011;59659;41.520;23.794;2023-12-04T00:03:15;14.30;;;5.90;;
71814;SDS011;59659;41.520;23.794;2023-12-04T00:04:27;16.33;;;9.98;;
71814;SDS011;59659;41.520;23.794;2023-12-04T00:05:38;16.85;;;9.35;;
71814;SDS011;59659;41.520;23.794;2023-12-04T00:06:53;21.67;;;10.35;;
71814;SDS011;59659;41.520;23.794;2023-12-04T00:08:04;26.58;;;12.07;;
71814;SDS011;59659;41.520;23.794;2023-12-04T00:09:16;22.67;;;12.68;;
71814;SDS011;59659;41.520;23.794;2023-12-04T00:10:27;25.35;;;11.27;;
71814;SDS011;59659;41.520;23.794;2023-12-04T00:11:41;17.88;;;9.40;;
71814;SDS011;59659;41.520;23.794;2023-12-04T00:12:52;28.20;;;11.13;;
71814;SDS011;59659;41.520;23.794;2023-12-04T00:14:04;23.65;;;8.85;;
71814;SDS011;59659;41.520;23.794;2023-12-04T00:15:17;17.80;;;8.82;;
71814;SDS011;59659;41.520;23.794;2023-12-04T00:16:29;15.85;;;8.48;;
71814;SDS011;59659;41.520;23.794;2023-12-04T00:17:45;14.90;;;6.97;;
71814;SDS011;59659;41.520;23.794;2023-12-04T00:18:56;11.48;;;6.82;;
71814;SDS011;59659;41.520;23.794;2023-12-04T00:20:08;12.48;;;6.15;;
71814;SDS011;59659;41.520;23.794;2023-12-04T00:21:20;12.98;;;5.80;;
71814;SDS011;59659;41.520;23.794;2023-12-04T00:22:32;28.88;;;9.68;;
71814;SDS011;59659;41.520;23.794;2023-12-04T00:23:43;30.38;;;8.98;;
71814;SDS011;59659;41.520;23.794;2023-12-04T00:24:55;17.10;;;6.28;;
71814;SDS011;59659;41.520;23.794;2023-12-04T00:26:06;7.75;;;3.75;;
71814;SDS011;59659;41.520;23.794;2023-12-04T00:27:18;11.13;;;2.92;;
71814;SDS011;59659;41.520;23.794;2023-12-04T00:28:31;7.75;;;2.90;;
71814;SDS011;59659;41.520;23.794;2023-12-04T00:29:42;7.90;;;4.47;;
71814;SDS011;59659;41.520;23.794;2023-12-04T00:30:54;13.90;;;4.60;;
71814;SDS011;59659;41.520;23.794;2023-12-04T00:32:05;17.75;;;6.10;;
71814;SDS011;59659;41.520;23.794;2023-12-04T00:33:18;15.27;;;5.47;;
71814;SDS011;59659;41.520;23.794;2023-12-04T00:34:29;14.73;;;5.93;;
71814;SDS011;59659;41.520;23.794;2023-12-04T00:35:41;17.58;;;5.05;;
71814;SDS011;59659;41.520;23.794;2023-12-04T00:36:52;12.95;;;6.13;;
71814;SDS011;59659;41.520;23.794;2023-12-04T00:38:04;7.82;;;4.03;;
71814;SDS011;59659;41.520;23.794;2023-12-04T00:39:16;12.70;;;4.38;;
71814;SDS011;59659;41.520;23.794;2023-12-04T00:40:27;11.05;;;4.63;;
71814;SDS011;59659;41.520;23.794;2023-12-04T00:41:39;8.30;;;3.55;;
71814;SDS011;59659;41.520;23.794;2023-12-04T00:42:50;34.65;;;10.35;;
71814;SDS011;59659;41.520;23.794;2023-12-04T00:44:02;31.38;;;9.13;;
71814;SDS011;59659;41.520;23.794;2023-12-04T00:45:13;20.33;;;7.95;;
71814;SDS011;59659;41.520;23.794;2023-12-04T00:46:25;17.95;;;7.43;;
71814;SDS011;59659;41.520;23.794;2023-12-04T00:47:37;17.27;;;6.68;;
71814;SDS011;59659;41.520;23.794;2023-12-04T00:48:49;19.33;;;5.93;;
71814;SDS011;59659;41.520;23.794;2023-12-04T00:50:01;15.15;;;5.13;;
71814;SDS011;59659;41.520;23.794;2023-12-04T00:51:12;11.80;;;5.15;;
71814;SDS011;59659;41.520;23.794;2023-12-04T00:52:24;12.32;;;5.88;;
71814;SDS011;59659;41.520;23.794;2023-12-04T00:53:35;11.55;;;4.80;;
71814;SDS011;59659;41.520;23.794;2023-12-04T00:54:47;14.15;;;5.00;;
71814;SDS011;59659;41.520;23.794;2023-12-04T00:55:58;11.75;;;5.70;;
71814;SDS011;59659;41.520;23.794;2023-12-04T00:57:10;9.38;;;4.18;;
71814;SDS011;59659;41.520;23.794;2023-12-04T00:58:21;13.30;;;5.50;;
71814;SDS011;59659;41.520;23.794;2023-12-04T00:59:33;9.20;;;3.97;;
71814;SDS011;59659;41.520;23.794;2023-12-04T01:00:45;11.98;;;5.05;;
71814;SDS011;59659;41.520;23.794;2023-12-04T01:01:56;20.77;;;4.88;;
71814;SDS011;59659;41.520;23.794;2023-12-04T01:03:08;10.05;;;4.07;;
71814;SDS011;59659;41.520;23.794;2023-12-04T01:04:19;13.98;;;3.63;;
71814;SDS011;59659;41.520;23.794;2023-12-04T01:05:31;9.20;;;3.42;;
71814;SDS011;59659;41.520;23.794;2023-12-04T01:06:42;10.98;;;3.78;;
71814;SDS011;59659;41.520;23.794;2023-12-04T01:07:54;5.78;;;3.00;;
71814;SDS011;59659;41.520;23.794;2023-12-04T01:09:05;6.63;;;2.95;;
71814;SDS011;59659;41.520;23.794;2023-12-04T01:10:17;9.43;;;2.97;;
71814;SDS011;59659;41.520;23.794;2023-12-04T01:11:28;5.63;;;2.40;;
71814;SDS011;59659;41.520;23.794;2023-12-04T01:12:40;3.85;;;2.28;;
71814;SDS011;59659;41.520;23.794;2023-12-04T01:13:52;3.78;;;3.00;;
71814;SDS011;59659;41.520;23.794;2023-12-04T01:15:03;3.92;;;1.50;;
71814;SDS011;59659;41.520;23.794;2023-12-04T01:16:15;7.35;;;1.50;;
71814;SDS011;59659;41.520;23.794;2023-12-04T01:17:27;2.53;;;1.67;;
71814;SDS011;59659;41.520;23.794;2023-12-04T01:18:38;7.15;;;1.80;;
71814;SDS011;59659;41.520;23.794;2023-12-04T01:19:50;3.40;;;2.05;;
71814;SDS011;59659;41.520;23.794;2023-12-04T01:21:02;3.58;;;2.05;;
71814;SDS011;59659;41.520;23.794;2023-12-04T01:22:13;3.15;;;1.33;;
71814;SDS011;59659;41.520;23.794;2023-12-04T01:23:25;2.05;;;1.20;;
71814;SDS011;59659;41.520;23.794;2023-12-04T01:24:36;3.53;;;2.22;;
71814;SDS011;59659;41.520;23.794;2023-12-04T01:25:48;4.75;;;2.13;;
71814;SDS011;59659;41.520;23.794;2023-12-04T01:26:59;7.00;;;2.72;;
71814;SDS011;59659;41.520;23.794;2023-12-04T01:28:11;6.40;;;2.10;;
71814;SDS011;59659;41.520;23.794;2023-12-04T01:29:22;2.65;;;2.00;;
71814;SDS011;59659;41.520;23.794;2023-12-04T01:30:34;2.55;;;1.65;;
71814;SDS011;59659;41.520;23.794;2023-12-04T01:31:45;4.13;;;2.42;;
71814;SDS011;59659;41.520;23.794;2023-12-04T01:32:57;5.07;;;2.00;;
71814;SDS011;59659;41.520;23.794;2023-12-04T01:34:09;8.32;;;1.80;;
71814;SDS011;59659;41.520;23.794;2023-12-04T01:35:21;2.67;;;1.33;;
71814;SDS011;59659;41.520;23.794;2023-12-04T01:36:32;3.60;;;1.77;;
71814;SDS011;59659;41.520;23.794;2023-12-04T01:37:44;3.80;;;1.92;;
71814;SDS011;59659;41.520;23.794;2023-12-04T01:38:55;5.70;;;2.38;;
71814;SDS011;59659;41.520;23.794;2023-12-04T01:40:07;3.78;;;2.00;;
71814;SDS011;59659;41.520;23.794;2023-12-04T01:41:19;2.83;;;1.83;;
71814;SDS011;59659;41.520;23.794;2023-12-04T01:42:30;3.33;;;1.70;;
71814;SDS011;59659;41.520;23.794;2023-12-04T01:43:42;4.43;;;1.90;;
71814;SDS011;59659;41.520;23.794;2023-12-04T01:44:54;6.32;;;2.05;;
71814;SDS011;59659;41.520;23.794;2023-12-04T01:46:05;4.18;;;2.00;;
71814;SDS011;59659;41.520;23.794;2023-12-04T01:47:18;3.88;;;2.13;;
71814;SDS011;59659;41.520;23.794;2023-12-04T01:48:29;3.88;;;2.03;;
71814;SDS011;59659;41.520;23.794;2023-12-04T01:49:41;2.95;;;1.55;;
71814;SDS011;59659;41.520;23.794;2023-12-04T01:50:53;3.17;;;1.85;;
71814;SDS011;59659;41.520;23.794;2023-12-04T01:52:05;4.60;;;1.90;;
71814;SDS011;59659;41.520;23.794;2023-12-04T01:53:16;4.38;;;2.00;;
71814;SDS011;59659;41.520;23.794;2023-12-04T01:54:28;5.93;;;2.47;;
71814;SDS011;59659;41.520;23.794;2023-12-04T01:55:40;6.85;;;3.70;;
71814;SDS011;59659;41.520;23.794;2023-12-04T01:56:52;6.85;;;2.33;;
71814;SDS011;59659;41.520;23.794;2023-12-04T01:58:03;3.13;;;1.90;;
71814;SDS011;59659;41.520;23.794;2023-12-04T01:59:15;3.17;;;1.83;;
71814;SDS011;59659;41.520;23.794;2023-12-04T02:00:27;5.32;;;2.25;;
71814;SDS011;59659;41.520;23.794;2023-12-04T02:01:39;3.95;;;1.95;;
71814;SDS011;59659;41.520;23.794;2023-12-04T02:02:51;3.72;;;2.10;;
71814;SDS011;59659;41.520;23.794;2023-12-04T02:04:03;3.20;;;2.00;;
71814;SDS011;59659;41.520;23.794;2023-12-04T02:05:16;4.75;;;2.17;;
71814;SDS011;59659;41.520;23.794;2023-12-04T02:06:28;5.60;;;2.25;;
71814;SDS011;59659;41.520;23.794;2023-12-04T02:07:42;4.63;;;2.92;;
71814;SDS011;59659;41.520;23.794;2023-12-04T02:08:54;6.30;;;3.00;;
71814;SDS011;59659;41.520;23.794;2023-12-04T02:10:07;9.57;;;4.13;;
71814;SDS011;59659;41.520;23.794;2023-12-04T02:11:20;9.98;;;3.80;;
71814;SDS011;59659;41.520;23.794;2023-12-04T02:12:31;8.43;;;2.90;;
71814;SDS011;59659;41.520;23.794;2023-12-04T02:13:43;11.65;;;3.33;;
71814;SDS011;59659;41.520;23.794;2023-12-04T02:14:55;6.30;;;3.03;;
71814;SDS011;59659;41.520;23.794;2023-12-04T02:16:07;6.13;;;2.90;;
71814;SDS011;59659;41.520;23.794;2023-12-04T02:17:20;3.88;;;2.40;;
71814;SDS011;59659;41.520;23.794;2023-12-04T02:18:32;3.75;;;2.22;;
71814;SDS011;59659;41.520;23.794;2023-12-04T02:19:44;5.20;;;2.65;;
71814;SDS011;59659;41.520;23.794;2023-12-04T02:20:56;5.88;;;2.28;;
71814;SDS011;59659;41.520;23.794;2023-12-04T02:22:07;5.43;;;2.10;;
71814;SDS011;59659;41.520;23.794;2023-12-04T02:23:19;4.68;;;2.17;;
71814;SDS011;59659;41.520;23.794;2023-12-04T02:24:30;5.00;;;2.35;;
71814;SDS011;59659;41.520;23.794;2023-12-04T02:25:45;6.35;;;2.60;;
71814;SDS011;59659;41.520;23.794;2023-12-04T02:26:58;3.20;;;2.00;;
71814;SDS011;59659;41.520;23.794;2023-12-04T02:28:11;5.13;;;2.30;;
71814;SDS011;59659;41.520;23.794;2023-12-04T02:29:29;5.13;;;2.95;;
71814;SDS011;59659;41.520;23.794;2023-12-04T02:30:43;10.13;;;4.80;;
71814;SDS011;59659;41.520;23.794;2023-12-04T02:31:55;8.52;;;3.65;;
71814;SDS011;59659;41.520;23.794;2023-12-04T02:33:07;8.65;;;3.00;;
71814;SDS011;59659;41.520;23.794;2023-12-04T02:34:21;8.02;;;3.00;;
71814;SDS011;59659;41.520;23.794;2023-12-04T02:35:34;10.32;;;4.13;;
71814;SDS011;59659;41.520;23.794;2023-12-04T02:36:46;12.73;;;7.25;;
71814;SDS011;59659;41.520;23.794;2023-12-04T02:37:58;13.05;;;6.65;;
71814;SDS011;59659;41.520;23.794;2023-12-04T02:39:11;13.63;;;2.72;;
71814;SDS011;59659;41.520;23.794;2023-12-04T02:40:22;8.35;;;3.25;;
71814;SDS011;59659;41.520;23.794;2023-12-04T02:41:34;10.88;;;4.15;;
71814;SDS011;59659;41.520;23.794;2023-12-04T02:42:46;5.85;;;2.85;;
71814;SDS011;59659;41.520;23.794;2023-12-04T02:43:57;6.05;;;2.67;;
71814;SDS011;59659;41.520;23.794;2023-12-04T02:45:09;5.78;;;3.15;;
71814;SDS011;59659;41.520;23.794;2023-12-04T02:46:21;5.90;;;2.80;;
71814;SDS011;59659;41.520;23.794;2023-12-04T02:47:32;4.95;;;2.50;;
71814;SDS011;59659;41.520;23.794;2023-12-04T02:48:44;7.22;;;2.58;;
71814;SDS011;59659;41.520;23.794;2023-12-04T02:49:56;10.23;;;2.70;;
71814;SDS011;59659;41.520;23.794;2023-12-04T02:51:07;5.65;;;2.20;;
71814;SDS011;59659;41.520;23.794;2023-12-04T02:52:19;6.25;;;2.47;;
71814;SDS011;59659;41.520;23.794;2023-12-04T02:53:30;5.03;;;1.83;;
71814;SDS011;59659;41.520;23.794;2023-12-04T02:54:42;6.00;;;1.98;;
71814;SDS011;59659;41.520;23.794;2023-12-04T02:55:53;5.32;;;2.28;;
71814;SDS011;59659;41.520;23.794;2023-12-04T02:57:05;6.53;;;2.55;;
71814;SDS011;59659;41.520;23.794;2023-12-04T02:58:16;4.35;;;2.60;;
71814;SDS011;59659;41.520;23.794;2023-12-04T02:59:28;2.83;;;2.00;;
71814;SDS011;59659;41.520;23.794;2023-12-04T03:00:40;3.15;;;1.73;;
71814;SDS011;59659;41.520;23.794;2023-12-04T03:01:51;5.78;;;2.67;;
71814;SDS011;59659;41.520;23.794;2023-12-04T03:03:03;6.32;;;2.10;;
71814;SDS011;59659;41.520;23.794;2023-12-04T03:04:15;34.13;;;9.10;;
71814;SDS011;59659;41.520;23.794;2023-12-04T03:05:26;71.35;;;21.67;;
71814;SDS011;59659;41.520;23.794;2023-12-04T03:06:38;72.28;;;24.67;;
71814;SDS011;59659;41.520;23.794;2023-12-04T03:07:49;55.05;;;21.55;;
71814;SDS011;59659;41.520;23.794;2023-12-04T03:09:02;68.53;;;22.27;;
71814;SDS011;59659;41.520;23.794;2023-12-04T03:10:15;51.47;;;19.40;;
71814;SDS011;59659;41.520;23.794;2023-12-04T03:11:26;53.92;;;19.10;;
71814;SDS011;59659;41.520;23.794;2023-12-04T03:12:38;34.95;;;12.73;;
71814;SDS011;59659;41.520;23.794;2023-12-04T03:13:49;31.52;;;10.23;;
71814;SDS011;59659;41.520;23.794;2023-12-04T03:15:01;41.08;;;14.32;;
71814;SDS011;59659;41.520;23.794;2023-12-04T03:16:18;41.90;;;15.40;;
71814;SDS011;59659;41.520;23.794;2023-12-04T03:17:30;81.72;;;26.75;;
71814;SDS011;59659;41.520;23.794;2023-12-04T03:18:41;71.82;;;24.73;;
71814;SDS011;59659;41.520;23.794;2023-12-04T03:19:53;64.25;;;20.67;;
71814;SDS011;59659;41.520;23.794;2023-12-04T03:21:04;27.83;;;9.98;;
71814;SDS011;59659;41.520;23.794;2023-12-04T03:22:17;18.52;;;5.85;;
71814;SDS011;59659;41.520;23.794;2023-12-04T03:23:29;9.85;;;5.18;;
71814;SDS011;59659;41.520;23.794;2023-12-04T03:24:41;8.63;;;4.32;;
71814;SDS011;59659;41.520;23.794;2023-12-04T03:25:52;6.53;;;3.67;;
71814;SDS011;59659;41.520;23.794;2023-12-04T03:27:04;8.60;;;3.00;;
71814;SDS011;59659;41.520;23.794;2023-12-04T03:28:15;7.75;;;3.00;;
71814;SDS011;59659;41.520;23.794;2023-12-04T03:29:27;9.13;;;4.10;;
71814;SDS011;59659;41.520;23.794;2023-12-04T03:30:38;6.65;;;2.53;;
71814;SDS011;59659;41.520;23.794;2023-12-04T03:31:50;8.40;;;4.00;;
71814;SDS011;59659;41.520;23.794;2023-12-04T03:33:01;12.70;;;4.95;;
71814;SDS011;59659;41.520;23.794;2023-12-04T03:34:13;7.13;;;3.17;;
71814;SDS011;59659;41.520;23.794;2023-12-04T03:35:26;5.38;;;2.90;;
71814;SDS011;59659;41.520;23.794;2023-12-04T03:36:37;6.82;;;4.00;;
71814;SDS011;59659;41.520;23.794;2023-12-04T03:37:49;7.85;;;3.88;;
71814;SDS011;59659;41.520;23.794;2023-12-04T03:39:03;22.63;;;9.75;;
71814;SDS011;59659;41.520;23.794;2023-12-04T03:40:16;16.48;;;8.43;;
71814;SDS011;59659;41.520;23.794;2023-12-04T03:41:27;13.18;;;5.85;;
71814;SDS011;59659;41.520;23.794;2023-12-04T03:42:39;10.13;;;3.20;;
71814;SDS011;59659;41.520;23.794;2023-12-04T03:43:52;7.22;;;3.58;;
71814;SDS011;59659;41.520;23.794;2023-12-04T03:45:04;7.78;;;3.33;;
71814;SDS011;59659;41.520;23.794;2023-12-04T03:46:15;9.13;;;3.28;;
71814;SDS011;59659;41.520;23.794;2023-12-04T03:47:29;8.73;;;3.67;;
71814;SDS011;59659;41.520;23.794;2023-12-04T03:48:40;6.75;;;3.25;;
71814;SDS011;59659;41.520;23.794;2023-12-04T03:49:52;9.65;;;3.50;;
71814;SDS011;59659;41.520;23.794;2023-12-04T03:51:04;7.40;;;3.53;;
71814;SDS011;59659;41.520;23.794;2023-12-04T03:52:16;7.65;;;2.97;;
71814;SDS011;59659;41.520;23.794;2023-12-04T03:53:27;7.80;;;2.70;;
71814;SDS011;59659;41.520;23.794;2023-12-04T03:54:39;8.45;;;2.08;;
71814;SDS011;59659;41.520;23.794;2023-12-04T03:55:50;6.22;;;2.60;;
71814;SDS011;59659;41.520;23.794;2023-12-04T03:57:02;5.05;;;2.55;;
71814;SDS011;59659;41.520;23.794;2023-12-04T03:58:14;5.72;;;2.63;;
71814;SDS011;59659;41.520;23.794;2023-12-04T03:59:26;4.25;;;2.05;;
71814;SDS011;59659;41.520;23.794;2023-12-04T04:00:37;7.72;;;2.30;;
71814;SDS011;59659;41.520;23.794;2023-12-04T04:01:53;6.85;;;2.90;;
71814;SDS011;59659;41.520;23.794;2023-12-04T04:03:04;18.90;;;8.77;;
71814;SDS011;59659;41.520;23.794;2023-12-04T04:04:16;11.57;;;6.82;;
71814;SDS011;59659;41.520;23.794;2023-12-04T04:05:27;7.35;;;4.45;;
71814;SDS011;59659;41.520;23.794;2023-12-04T04:06:40;4.43;;;2.10;;
71814;SDS011;59659;41.520;23.794;2023-12-04T04:07:51;4.55;;;1.88;;
71814;SDS011;59659;41.520;23.794;2023-12-04T04:09:04;4.65;;;2.55;;
71814;SDS011;59659;41.520;23.794;2023-12-04T04:10:16;4.28;;;1.70;;
71814;SDS011;59659;41.520;23.794;2023-12-04T04:11:27;3.20;;;2.30;;
71814;SDS011;59659;41.520;23.794;2023-12-04T04:12:39;1.92;;;1.50;;
71814;SDS011;59659;41.520;23.794;2023-12-04T04:13:50;3.35;;;1.90;;
71814;SDS011;59659;41.520;23.794;2023-12-04T04:15:02;6.63;;;2.47;;
71814;SDS011;59659;41.520;23.794;2023-12-04T04:16:15;4.13;;;2.20;;
71814;SDS011;59659;41.520;23.794;2023-12-04T04:17:27;3.67;;;1.90;;
71814;SDS011;59659;41.520;23.794;2023-12-04T04:18:39;2.75;;;1.75;;
71814;SDS011;59659;41.520;23.794;2023-12-04T04:19:50;5.05;;;2.05;;
71814;SDS011;59659;41.520;23.794;2023-12-04T04:21:02;3.08;;;1.98;;
71814;SDS011;59659;41.520;23.794;2023-12-04T04:22:14;2.83;;;1.70;;
71814;SDS011;59659;41.520;23.794;2023-12-04T04:23:25;2.50;;;1.52;;
71814;SDS011;59659;41.520;23.794;2023-12-04T04:24:37;4.38;;;1.95;;
71814;SDS011;59659;41.520;23.794;2023-12-04T04:25:49;2.85;;;1.88;;
71814;SDS011;59659;41.520;23.794;2023-12-04T04:27:00;10.35;;;1.92;;
71814;SDS011;59659;41.520;23.794;2023-12-04T04:28:12;5.45;;;2.08;;
71814;SDS011;59659;41.520;23.794;2023-12-04T04:29:24;2.95;;;1.90;;
71814;SDS011;59659;41.520;23.794;2023-12-04T04:30:35;2.55;;;1.83;;
71814;SDS011;59659;41.520;23.794;2023-12-04T04:31:47;7.80;;;2.80;;
71814;SDS011;59659;41.520;23.794;2023-12-04T04:32:58;3.92;;;2.22;;
71814;SDS011;59659;41.520;23.794;2023-12-04T04:34:10;3.75;;;2.10;;
71814;SDS011;59659;41.520;23.794;2023-12-04T04:35:22;3.45;;;2.63;;
71814;SDS011;59659;41.520;23.794;2023-12-04T04:36:33;5.63;;;2.95;;
71814;SDS011;59659;41.520;23.794;2023-12-04T04:37:47;5.53;;;2.70;;
71814;SDS011;59659;41.520;23.794;2023-12-04T04:39:02;6.20;;;2.33;;
71814;SDS011;59659;41.520;23.794;2023-12-04T04:40:14;6.25;;;3.25;;
71814;SDS011;59659;41.520;23.794;2023-12-04T04:41:25;9.88;;;3.30;;
71814;SDS011;59659;41.520;23.794;2023-12-04T04:42:37;6.70;;;2.90;;
71814;SDS011;59659;41.520;23.794;2023-12-04T04:43:48;6.35;;;3.38;;
71814;SDS011;59659;41.520;23.794;2023-12-04T04:45:00;10.52;;;4.43;;
71814;SDS011;59659;41.520;23.794;2023-12-04T04:46:12;5.90;;;3.25;;
71814;SDS011;59659;41.520;23.794;2023-12-04T04:47:23;7.18;;;3.70;;
71814;SDS011;59659;41.520;23.794;2023-12-04T04:48:35;5.15;;;3.03;;
71814;SDS011;59659;41.520;23.794;2023-12-04T04:49:47;6.00;;;3.38;;
71814;SDS011;59659;41.520;23.794;2023-12-04T04:50:59;6.68;;;3.15;;
71814;SDS011;59659;41.520;23.794;2023-12-04T04:52:10;7.10;;;3.60;;
71814;SDS011;59659;41.520;23.794;2023-12-04T04:53:22;5.18;;;2.58;;
71814;SDS011;59659;41.520;23.794;2023-12-04T04:54:33;4.82;;;2.67;;
71814;SDS011;59659;41.520;23.794;2023-12-04T04:55:45;7.05;;;3.28;;
71814;SDS011;59659;41.520;23.794;2023-12-04T04:56:59;25.33;;;9.73;;
71814;SDS011;59659;41.520;23.794;2023-12-04T04:58:11;25.85;;;9.85;;
71814;SDS011;59659;41.520;23.794;2023-12-04T04:59:23;24.85;;;9.40;;
71814;SDS011;59659;41.520;23.794;2023-12-04T05:00:34;30.60;;;11.10;;
71814;SDS011;59659;41.520;23.794;2023-12-04T05:01:46;13.88;;;5.47;;
71814;SDS011;59659;41.520;23.794;2023-12-04T05:02:57;11.82;;;5.60;;
71814;SDS011;59659;41.520;23.794;2023-12-04T05:04:09;19.90;;;7.00;;
71814;SDS011;59659;41.520;23.794;2023-12-04T05:05:20;17.17;;;7.72;;
71814;SDS011;59659;41.520;23.794;2023-12-04T05:06:32;12.40;;;4.75;;
71814;SDS011;59659;41.520;23.794;2023-12-04T05:07:44;7.82;;;4.72;;
71814;SDS011;59659;41.520;23.794;2023-12-04T05:08:55;10.65;;;4.85;;
71814;SDS011;59659;41.520;23.794;2023-12-04T05:10:08;10.70;;;5.68;;
71814;SDS011;59659;41.520;23.794;2023-12-04T05:11:20;10.90;;;5.05;;
71814;SDS011;59659;41.520;23.794;2023-12-04T05:12:31;12.18;;;6.25;;
71814;SDS011;59659;41.520;23.794;2023-12-04T05:13:44;7.82;;;5.38;;
71814;SDS011;59659;41.520;23.794;2023-12-04T05:14:55;7.57;;;3.78;;
71814;SDS011;59659;41.520;23.794;2023-12-04T05:16:07;6.32;;;3.00;;
71814;SDS011;59659;41.520;23.794;2023-12-04T05:17:19;14.57;;;5.72;;
71814;SDS011;59659;41.520;23.794;2023-12-04T05:18:30;24.20;;;9.55;;
71814;SDS011;59659;41.520;23.794;2023-12-04T05:19:42;30.20;;;12.48;;
71814;SDS011;59659;41.520;23.794;2023-12-04T05:20:54;35.60;;;12.63;;
71814;SDS011;59659;41.520;23.794;2023-12-04T05:22:05;42.30;;;13.80;;
71814;SDS011;59659;41.520;23.794;2023-12-04T05:23:17;44.25;;;17.33;;
71814;SDS011;59659;41.520;23.794;2023-12-04T05:24:28;42.95;;;14.30;;
71814;SDS011;59659;41.520;23.794;2023-12-04T05:25:40;32.58;;;12.05;;
71814;SDS011;59659;41.520;23.794;2023-12-04T05:27:00;40.30;;;15.07;;
71814;SDS011;59659;41.520;23.794;2023-12-04T05:28:11;36.45;;;14.13;;
71814;SDS011;59659;41.520;23.794;2023-12-04T05:29:23;45.67;;;15.45;;
71814;SDS011;59659;41.520;23.794;2023-12-04T05:30:34;25.45;;;9.38;;
71814;SDS011;59659;41.520;23.794;2023-12-04T05:31:46;26.20;;;9.18;;
71814;SDS011;59659;41.520;23.794;2023-12-04T05:32:58;18.92;;;9.13;;
71814;SDS011;59659;41.520;23.794;2023-12-04T05:34:09;16.35;;;7.28;;
71814;SDS011;59659;41.520;23.794;2023-12-04T05:35:21;27.33;;;11.60;;
71814;SDS011;59659;41.520;23.794;2023-12-04T05:36:33;30.67;;;11.55;;
71814;SDS011;59659;41.520;23.794;2023-12-04T05:37:44;28.45;;;12.52;;
71814;SDS011;59659;41.520;23.794;2023-12-04T05:38:56;27.45;;;10.27;;
71814;SDS011;59659;41.520;23.794;2023-12-04T05:40:11;20.30;;;7.22;;
71814;SDS011;59659;41.520;23.794;2023-12-04T05:41:23;14.90;;;6.00;;
71814;SDS011;59659;41.520;23.794;2023-12-04T05:42:35;13.27;;;5.25;;
71814;SDS011;59659;41.520;23.794;2023-12-04T05:43:47;10.00;;;5.80;;
71814;SDS011;59659;41.520;23.794;2023-12-04T05:44:59;23.75;;;6.25;;
71814;SDS011;59659;41.520;23.794;2023-12-04T05:46:12;10.75;;;4.20;;
71814;SDS011;59659;41.520;23.794;2023-12-04T05:47:24;14.93;;;5.88;;
71814;SDS011;59659;41.520;23.794;2023-12-04T05:48:36;13.55;;;5.80;;
71814;SDS011;59659;41.520;23.794;2023-12-04T05:49:47;13.25;;;5.70;;
71814;SDS011;59659;41.520;23.794;2023-12-04T05:50:59;14.63;;;6.38;;
71814;SDS011;59659;41.520;23.794;2023-12-04T05:52:10;21.95;;;6.97;;
71814;SDS011;59659;41.520;23.794;2023-12-04T05:53:22;20.02;;;7.45;;
71814;SDS011;59659;41.520;23.794;2023-12-04T05:54:34;19.45;;;6.75;;
71814;SDS011;59659;41.520;23.794;2023-12-04T05:55:45;19.85;;;8.05;;
71814;SDS011;59659;41.520;23.794;2023-12-04T05:56:57;25.83;;;11.55;;
71814;SDS011;59659;41.520;23.794;2023-12-04T05:58:09;29.75;;;11.68;;
71814;SDS011;59659;41.520;23.794;2023-12-04T05:59:21;22.45;;;9.25;;
71814;SDS011;59659;41.520;23.794;2023-12-04T06:00:32;25.35;;;8.65;;
71814;SDS011;59659;41.520;23.794;2023-12-04T06:01:44;23.08;;;8.43;;
71814;SDS011;59659;41.520;23.794;2023-12-04T06:02:55;21.67;;;9.05;;
71814;SDS011;59659;41.520;23.794;2023-12-04T06:04:07;14.25;;;6.90;;
71814;SDS011;59659;41.520;23.794;2023-12-04T06:05:18;10.90;;;4.57;;
71814;SDS011;59659;41.520;23.794;2023-12-04T06:06:30;6.95;;;3.88;;
71814;SDS011;59659;41.520;23.794;2023-12-04T06:07:42;4.88;;;3.13;;
71814;SDS011;59659;41.520;23.794;2023-12-04T06:08:53;11.90;;;5.90;;
71814;SDS011;59659;41.520;23.794;2023-12-04T06:10:05;22.90;;;14.05;;
71814;SDS011;59659;41.520;23.794;2023-12-04T06:11:17;21.52;;;10.75;;
71814;SDS011;59659;41.520;23.794;2023-12-04T06:12:28;11.98;;;8.18;;
71814;SDS011;59659;41.520;23.794;2023-12-04T06:13:40;11.45;;;6.07;;
71814;SDS011;59659;41.520;23.794;2023-12-04T06:14:51;12.85;;;4.80;;
71814;SDS011;59659;41.520;23.794;2023-12-04T06:16:03;8.38;;;3.70;;
71814;SDS011;59659;41.520;23.794;2023-12-04T06:17:14;5.25;;;3.13;;
71814;SDS011;59659;41.520;23.794;2023-12-04T06:18:26;9.95;;;3.83;;
71814;SDS011;59659;41.520;23.794;2023-12-04T06:19:39;8.10;;;4.47;;
71814;SDS011;59659;41.520;23.794;2023-12-04T06:20:51;9.55;;;5.13;;
71814;SDS011;59659;41.520;23.794;2023-12-04T06:22:02;14.50;;;7.47;;
71814;SDS011;59659;41.520;23.794;2023-12-04T06:23:14;21.25;;;8.02;;
71814;SDS011;59659;41.520;23.794;2023-12-04T06:24:26;22.60;;;8.27;;
71814;SDS011;59659;41.520;23.794;2023-12-04T06:25:38;20.42;;;8.25;;
71814;SDS011;59659;41.520;23.794;2023-12-04T06:26:50;17.58;;;6.60;;
71814;SDS011;59659;41.520;23.794;2023-12-04T06:28:02;18.70;;;8.75;;
71814;SDS011;59659;41.520;23.794;2023-12-04T06:29:14;24.98;;;9.65;;
71814;SDS011;59659;41.520;23.794;2023-12-04T06:30:25;21.70;;;9.00;;
71814;SDS011;59659;41.520;23.794;2023-12-04T06:31:38;24.88;;;10.00;;
71814;SDS011;59659;41.520;23.794;2023-12-04T06:32:50;32.88;;;13.23;;
71814;SDS011;59659;41.520;23.794;2023-12-04T06:34:01;42.50;;;13.50;;
71814;SDS011;59659;41.520;23.794;2023-12-04T06:35:13;36.15;;;12.10;;
71814;SDS011;59659;41.520;23.794;2023-12-04T06:36:31;36.30;;;11.75;;
71814;SDS011;59659;41.520;23.794;2023-12-04T06:37:45;23.95;;;9.48;;
71814;SDS011;59659;41.520;23.794;2023-12-04T06:38:57;22.85;;;9.48;;
71814;SDS011;59659;41.520;23.794;2023-12-04T06:40:10;21.67;;;8.55;;
71814;SDS011;59659;41.520;23.794;2023-12-04T06:41:23;14.75;;;5.95;;
71814;SDS011;59659;41.520;23.794;2023-12-04T06:42:35;19.23;;;8.02;;
71814;SDS011;59659;41.520;23.794;2023-12-04T06:43:47;18.48;;;7.53;;
71814;SDS011;59659;41.520;23.794;2023-12-04T06:45:02;18.70;;;6.75;;
71814;SDS011;59659;41.520;23.794;2023-12-04T06:46:14;14.32;;;7.95;;
71814;SDS011;59659;41.520;23.794;2023-12-04T06:47:26;15.05;;;8.90;;
71814;SDS011;59659;41.520;23.794;2023-12-04T06:48:39;18.70;;;9.90;;
71814;SDS011;59659;41.520;23.794;2023-12-04T06:49:51;16.23;;;7.78;;
71814;SDS011;59659;41.520;23.794;2023-12-04T06:51:03;12.80;;;6.60;;
71814;SDS011;59659;41.520;23.794;2023-12-04T06:52:15;19.42;;;8.05;;
71814;SDS011;59659;41.520;23.794;2023-12-04T06:53:26;17.45;;;8.02;;
71814;SDS011;59659;41.520;23.794;2023-12-04T06:54:38;18.00;;;7.43;;
71814;SDS011;59659;41.520;23.794;2023-12-04T06:55:50;7.70;;;4.70;;
71814;SDS011;59659;41.520;23.794;2023-12-04T06:57:01;13.77;;;4.88;;
71814;SDS011;59659;41.520;23.794;2023-12-04T06:58:13;8.10;;;3.95;;
71814;SDS011;59659;41.520;23.794;2023-12-04T06:59:25;10.27;;;4.60;;
71814;SDS011;59659;41.520;23.794;2023-12-04T07:00:36;12.27;;;3.80;;
71814;SDS011;59659;41.520;23.794;2023-12-04T07:01:48;12.63;;;4.25;;
71814;SDS011;59659;41.520;23.794;2023-12-04T07:02:59;18.42;;;8.45;;